Time;durP1;ratioP1;P1;durP2;ratioP2;P2;SDS_P1;SDS_P2;PMS_P1;PMS_P2;Temp;Humidity;BMP_temperature;BMP_pressure;BME280_temperature;BME280_humidity;BME280_pressure;Samples;Min_cycle;Max_cycle;Signal;HPM_P1;HPM_P2
2024/02/10 00:02:06;;;;;;;12.15;6.13;;;20.30;99.90;;;;;;5091826;28;20108;-54
2024/02/10 00:04:32;;;;;;;12.80;6.25;;;20.30;99.90;;;;;;5085327;28;20065;-54
2024/02/10 00:06:59;;;;;;;11.25;5.72;;;20.30;99.90;;;;;;5093000;28;20027;-55
2024/02/10 00:09:25;;;;;;;11.07;5.88;;;20.30;99.90;;;;;;5092728;28;20468;-58
2024/02/10 00:11:50;;;;;;;8.80;5.43;;;20.30;99.90;;;;;;5092772;28;20027;-57
2024/02/10 00:14:21;;;;;;;13.07;6.53;;;20.30;99.90;;;;;;5092074;28;20028;-58
2024/02/10 00:16:46;;;;;;;9.40;6.00;;;20.30;99.90;;;;;;5092711;28;20349;-57
2024/02/10 00:19:12;;;;;;;10.15;6.25;;;20.30;99.90;;;;;;5092294;28;20024;-56
2024/02/10 00:21:38;;;;;;;9.90;6.07;;;20.30;99.90;;;;;;5090963;28;20024;-55
2024/02/10 00:24:07;;;;;;;11.70;5.22;;;20.30;99.90;;;;;;5092572;28;20111;-54
2024/02/10 00:26:33;;;;;;;7.85;4.68;;;20.30;99.90;;;;;;5091146;28;20024;-54
2024/02/10 00:28:59;;;;;;;8.52;5.05;;;20.30;99.90;;;;;;5092059;28;20012;-57
2024/02/10 00:31:25;;;;;;;8.75;5.68;;;20.30;99.90;;;;;;5092669;28;20012;-57
2024/02/10 00:33:51;;;;;;;12.30;5.18;;;20.30;99.90;;;;;;5092681;28;20058;-56
2024/02/10 00:36:18;;;;;;;7.70;5.20;;;20.30;99.90;;;;;;5092238;28;20020;-57
2024/02/10 00:38:44;;;;;;;11.20;5.78;;;20.30;99.90;;;;;;5092490;28;20028;-58
2024/02/10 00:41:11;;;;;;;6.78;4.90;;;20.30;99.90;;;;;;5092008;28;20027;-56
2024/02/10 00:43:42;;;;;;;7.63;5.20;;;20.30;99.90;;;;;;5092039;28;20036;-56
2024/02/10 00:46:15;;;;;;;7.70;5.40;;;20.30;99.90;;;;;;5092196;28;20053;-56
2024/02/10 00:48:42;;;;;;;9.65;5.80;;;20.30;99.90;;;;;;5092365;28;20020;-57
2024/02/10 00:51:09;;;;;;;9.57;5.47;;;20.30;99.90;;;;;;5091668;28;20020;-54
2024/02/10 00:53:39;;;;;;;8.97;4.93;;;20.30;99.90;;;;;;5091993;28;20028;-52
2024/02/10 00:56:09;;;;;;;9.07;4.68;;;20.30;99.90;;;;;;5091607;28;20760;-53
2024/02/10 00:58:45;;;;;;;8.35;4.93;;;20.30;99.90;;;;;;5090690;28;20032;-52
2024/02/10 01:01:20;;;;;;;8.23;5.13;;;20.30;99.90;;;;;;5091434;28;20031;-54
2024/02/10 01:03:47;;;;;;;9.38;4.93;;;20.30;99.90;;;;;;5091337;28;20032;-55
2024/02/10 01:06:20;;;;;;;7.80;4.70;;;20.30;99.90;;;;;;5089554;28;20031;-53
2024/02/10 01:08:48;;;;;;;9.52;5.50;;;20.30;99.90;;;;;;5092196;28;20027;-54
2024/02/10 01:11:19;;;;;;;8.77;4.93;;;20.30;99.90;;;;;;5090406;28;20118;-53
2024/02/10 01:13:46;;;;;;;8.95;5.68;;;20.30;99.90;;;;;;5090542;28;20016;-54
2024/02/10 01:16:16;;;;;;;10.40;5.03;;;20.30;99.90;;;;;;5091718;28;20073;-54
2024/02/10 01:18:50;;;;;;;8.45;5.05;;;20.30;99.90;;;;;;5090329;28;20488;-52
2024/02/10 01:21:17;;;;;;;6.70;4.40;;;20.30;99.90;;;;;;5091460;28;20032;-53
2024/02/10 01:23:46;;;;;;;7.78;4.70;;;20.30;99.90;;;;;;5091584;28;20082;-55
2024/02/10 01:26:17;;;;;;;6.75;4.28;;;20.30;99.90;;;;;;5091868;28;20107;-54
2024/02/10 01:28:44;;;;;;;6.78;4.15;;;20.30;99.90;;;;;;5091328;28;20086;-54
2024/02/10 01:31:12;;;;;;;7.10;4.35;;;20.30;99.90;;;;;;5090538;28;20034;-53
2024/02/10 01:33:41;;;;;;;11.15;5.32;;;20.30;99.90;;;;;;5091638;28;20024;-53
2024/02/10 01:36:10;;;;;;;7.53;4.53;;;20.30;99.90;;;;;;5091454;28;20035;-53
2024/02/10 01:38:44;;;;;;;6.40;4.00;;;20.30;99.90;;;;;;5091577;28;20023;-54
2024/02/10 01:41:11;;;;;;;7.82;4.13;;;20.30;99.90;;;;;;5091530;28;20473;-53
2024/02/10 01:43:41;;;;;;;7.10;4.00;;;20.30;99.90;;;;;;5091109;28;20052;-55
2024/02/10 01:46:15;;;;;;;9.18;4.18;;;20.30;99.90;;;;;;5091002;28;20453;-55
2024/02/10 01:48:45;;;;;;;8.35;3.60;;;20.20;99.90;;;;;;5068131;28;20024;-55
2024/02/10 01:51:15;;;;;;;8.10;4.35;;;20.30;99.90;;;;;;5089779;28;20111;-56
2024/02/10 01:53:41;;;;;;;7.60;4.05;;;20.20;99.90;;;;;;5087261;28;20357;-54
2024/02/10 01:56:10;;;;;;;8.05;3.50;;;20.20;99.90;;;;;;5084404;28;20024;-55
2024/02/10 01:58:39;;;;;;;9.40;3.58;;;20.30;99.90;;;;;;5091416;28;20055;-54
2024/02/10 02:01:05;;;;;;;5.53;3.90;;;20.30;99.90;;;;;;5091479;28;20532;-54
2024/02/10 02:03:31;;;;;;;6.53;3.58;;;20.20;99.90;;;;;;5090561;28;20028;-55
2024/02/10 02:05:58;;;;;;;6.20;3.78;;;20.30;99.90;;;;;;5091362;28;20035;-56
2024/02/10 02:08:24;;;;;;;4.63;3.30;;;20.20;99.90;;;;;;5091952;28;20031;-55
2024/02/10 02:10:50;;;;;;;7.25;3.88;;;20.20;99.90;;;;;;5094536;28;20407;-53
2024/02/10 02:13:22;;;;;;;6.07;3.40;;;20.20;99.90;;;;;;5094805;28;20035;-54
2024/02/10 02:15:49;;;;;;;8.30;3.67;;;20.20;99.90;;;;;;5093587;28;20472;-53
2024/02/10 02:18:15;;;;;;;6.25;3.88;;;20.20;99.90;;;;;;5094520;28;20072;-55
2024/02/10 02:20:47;;;;;;;5.10;3.03;;;20.20;99.90;;;;;;5094682;28;20043;-55
2024/02/10 02:23:18;;;;;;;8.05;3.22;;;20.20;99.90;;;;;;5094091;28;20173;-57
2024/02/10 02:25:50;;;;;;;4.97;3.15;;;20.20;99.90;;;;;;5083188;28;20035;-57
2024/02/10 02:28:23;;;;;;;4.30;3.00;;;20.20;99.90;;;;;;5094369;28;20375;-55
2024/02/10 02:30:49;;;;;;;5.70;3.35;;;20.20;99.90;;;;;;5094720;28;20032;-57
2024/02/10 02:33:14;;;;;;;7.82;3.25;;;20.20;99.90;;;;;;5094421;28;20028;-57
2024/02/10 02:35:44;;;;;;;5.10;3.15;;;20.20;99.90;;;;;;5094412;28;20081;-58
2024/02/10 02:38:13;;;;;;;5.82;2.85;;;20.20;99.90;;;;;;5094551;28;20073;-57
2024/02/10 02:40:41;;;;;;;4.00;2.63;;;20.20;99.90;;;;;;5094513;28;20027;-58
2024/02/10 02:43:09;;;;;;;6.05;3.30;;;20.20;99.90;;;;;;5080952;28;20069;-60
2024/02/10 02:45:35;;;;;;;8.40;3.50;;;20.20;99.90;;;;;;5094497;28;20020;-59
2024/02/10 02:48:01;;;;;;;4.10;2.58;;;20.30;99.90;;;;;;5094616;28;20024;-57
2024/02/10 02:50:31;;;;;;;8.82;3.17;;;20.20;99.90;;;;;;5092694;28;20077;-56
2024/02/10 02:53:02;;;;;;;6.20;3.20;;;20.20;99.90;;;;;;5094407;28;20472;-59
2024/02/10 02:55:28;;;;;;;4.30;2.40;;;20.20;99.90;;;;;;5094273;28;20028;-59
2024/02/10 02:57:55;;;;;;;5.97;2.63;;;20.20;99.90;;;;;;5094311;28;20024;-58
2024/02/10 03:00:22;;;;;;;5.55;3.25;;;20.20;99.90;;;;;;5094580;28;20468;-57
2024/02/10 03:02:48;;;;;;;4.90;3.00;;;20.20;99.90;;;;;;5094337;28;20048;-59
2024/02/10 03:05:17;;;;;;;6.70;2.30;;;20.20;99.90;;;;;;5093656;28;20016;-57
2024/02/10 03:07:45;;;;;;;3.85;2.78;;;20.20;99.90;;;;;;5094108;28;20035;-56
2024/02/10 03:10:12;;;;;;;4.05;2.90;;;20.20;99.90;;;;;;5093667;28;20008;-56
2024/02/10 03:12:38;;;;;;;8.13;2.78;;;20.20;99.90;;;;;;5093517;28;20039;-58
2024/02/10 03:15:07;;;;;;;4.70;3.00;;;20.20;99.90;;;;;;5094054;28;20031;-56
2024/02/10 03:17:33;;;;;;;3.92;2.58;;;20.20;99.90;;;;;;5094109;28;20024;-56
2024/02/10 03:20:00;;;;;;;4.53;2.58;;;20.20;99.90;;;;;;5091871;28;20411;-57
2024/02/10 03:22:26;;;;;;;4.18;2.55;;;20.20;99.90;;;;;;5092349;28;20036;-58
2024/02/10 03:24:55;;;;;;;4.88;2.40;;;20.20;99.90;;;;;;5093436;28;20051;-56
2024/02/10 03:27:21;;;;;;;3.55;2.30;;;20.20;99.90;;;;;;5106432;28;20028;-56
2024/02/10 03:29:50;;;;;;;4.85;2.50;;;20.20;99.90;;;;;;5093927;28;20031;-57
2024/02/10 03:32:17;;;;;;;4.20;2.05;;;20.20;99.90;;;;;;5093616;28;20103;-56
2024/02/10 03:39:48;;;;;;;3.30;2.22;;;20.20;99.90;;;;;;5011374;28;20049;-56
2024/02/10 03:42:14;;;;;;;4.70;2.38;;;20.20;99.90;;;;;;5013318;28;20030;-55
2024/02/10 03:44:40;;;;;;;4.25;2.40;;;20.20;99.90;;;;;;5014251;28;20034;-56
2024/02/10 03:47:09;;;;;;;3.80;2.42;;;20.20;99.90;;;;;;5011212;28;20025;-55
2024/02/10 03:49:35;;;;;;;3.50;1.92;;;20.20;99.90;;;;;;5012193;28;20371;-55
2024/02/10 03:52:00;;;;;;;3.42;1.98;;;20.20;99.90;;;;;;5012614;28;20018;-56
2024/02/10 03:54:26;;;;;;;5.93;2.25;;;20.10;99.90;;;;;;5012707;28;20542;-56
2024/02/10 03:56:52;;;;;;;4.03;1.90;;;20.10;99.90;;;;;;5012330;28;20528;-56
2024/02/10 03:59:18;;;;;;;5.15;2.42;;;20.20;99.90;;;;;;5013555;28;20115;-55
2024/02/10 04:01:44;;;;;;;3.60;2.10;;;20.10;99.90;;;;;;5013469;28;20026;-55
2024/02/10 04:04:10;;;;;;;2.80;1.90;;;20.20;99.90;;;;;;5013645;28;20397;-56
2024/02/10 04:06:37;;;;;;;3.78;2.10;;;20.10;99.90;;;;;;5013159;28;20109;-55
2024/02/10 04:09:06;;;;;;;5.70;2.30;;;20.10;99.90;;;;;;5013409;28;20493;-56
2024/02/10 04:11:33;;;;;;;3.25;2.25;;;20.10;99.90;;;;;;5013344;28;20028;-56
2024/02/10 04:13:59;;;;;;;4.90;2.53;;;20.10;99.90;;;;;;5013252;28;20040;-56
2024/02/10 04:16:25;;;;;;;3.10;2.03;;;20.10;99.90;;;;;;5013069;28;20026;-56
2024/02/10 04:18:53;;;;;;;4.45;2.10;;;20.10;99.90;;;;;;5011759;28;20505;-56
2024/02/10 04:21:20;;;;;;;7.22;2.15;;;20.10;99.90;;;;;;5011971;28;20101;-56
2024/02/10 04:23:45;;;;;;;4.10;1.60;;;20.10;99.90;;;;;;5013029;28;20473;-55
2024/02/10 04:26:11;;;;;;;5.32;2.88;;;20.10;99.90;;;;;;5013157;28;20133;-56
2024/02/10 04:28:37;;;;;;;2.92;1.75;;;20.10;99.90;;;;;;5012973;28;20030;-56
2024/02/10 04:31:04;;;;;;;6.30;3.00;;;20.10;99.90;;;;;;5011677;28;20433;-55
2024/02/10 04:33:30;;;;;;;2.85;1.60;;;20.10;99.90;;;;;;5012474;28;20030;-56
2024/02/10 04:35:55;;;;;;;3.97;2.20;;;20.00;99.90;;;;;;5012694;28;20018;-55
2024/02/10 04:38:24;;;;;;;3.67;2.10;;;20.00;99.90;;;;;;5013276;28;20053;-56
2024/02/10 04:40:53;;;;;;;3.63;1.60;;;20.00;99.90;;;;;;5012942;28;20390;-56
2024/02/10 04:43:19;;;;;;;2.97;1.80;;;20.00;99.90;;;;;;5012660;28;20049;-55
2024/02/10 04:45:48;;;;;;;2.63;1.52;;;20.00;99.90;;;;;;5012867;28;20022;-56
2024/02/10 04:48:19;;;;;;;3.30;1.52;;;20.00;99.90;;;;;;5012996;28;20034;-56
2024/02/10 04:50:45;;;;;;;4.13;1.58;;;20.00;99.90;;;;;;5012811;28;20022;-56
2024/02/10 04:53:11;;;;;;;3.00;1.98;;;20.00;99.90;;;;;;5012796;28;20430;-56
2024/02/10 04:55:41;;;;;;;3.38;1.80;;;20.00;99.90;;;;;;5012692;28;20068;-56
2024/02/10 04:58:07;;;;;;;3.60;1.92;;;20.00;99.90;;;;;;5012531;28;20500;-56
2024/02/10 05:00:32;;;;;;;2.65;1.85;;;20.00;99.90;;;;;;5013091;28;20026;-56
2024/02/10 05:03:02;;;;;;;2.92;1.63;;;19.90;99.90;;;;;;5012552;28;20396;-55
2024/02/10 05:05:28;;;;;;;3.97;2.25;;;19.90;99.90;;;;;;5012492;28;20099;-56
2024/02/10 05:07:56;;;;;;;4.65;1.90;;;19.90;99.90;;;;;;5012411;28;20062;-56
2024/02/10 05:10:23;;;;;;;2.95;1.60;;;19.90;99.90;;;;;;5012513;28;20058;-56
2024/02/10 05:12:50;;;;;;;2.78;1.40;;;19.90;99.90;;;;;;5012409;28;20520;-56
2024/02/10 05:15:23;;;;;;;3.78;1.45;;;19.90;99.90;;;;;;5012938;28;20179;-56
2024/02/10 05:17:53;;;;;;;2.63;1.80;;;19.90;99.90;;;;;;5012494;28;20073;-56
2024/02/10 05:20:21;;;;;;;3.88;1.67;;;19.90;99.90;;;;;;5012471;28;20025;-56
2024/02/10 05:22:51;;;;;;;4.82;1.55;;;19.90;99.90;;;;;;5012479;28;20466;-56
2024/02/10 05:25:18;;;;;;;3.45;1.63;;;19.90;99.90;;;;;;5012477;28;20454;-56
2024/02/10 05:27:45;;;;;;;5.50;2.03;;;19.90;99.90;;;;;;5012546;28;20018;-56
2024/02/10 05:30:23;;;;;;;3.60;1.80;;;19.90;99.90;;;;;;5012456;28;20418;-55
2024/02/10 05:32:52;;;;;;;;;;;19.90;99.90;;;;;;5012793;28;20037;-56
2024/02/10 05:35:19;;;;;;;3.05;1.48;;;19.90;99.90;;;;;;5012401;28;20384;-56
2024/02/10 05:37:54;;;;;;;2.33;1.30;;;19.90;99.90;;;;;;5012228;28;20057;-56
2024/02/10 05:40:20;;;;;;;4.43;1.85;;;19.90;99.90;;;;;;5012265;28;20490;-56
2024/02/10 05:42:47;;;;;;;3.03;1.60;;;19.90;99.90;;;;;;5012401;28;20029;-56
2024/02/10 05:45:16;;;;;;;2.55;1.45;;;19.80;99.90;;;;;;5012968;28;20026;-56
2024/02/10 05:47:44;;;;;;;2.72;1.50;;;19.80;99.90;;;;;;5015936;28;20084;-55
2024/02/10 05:50:15;;;;;;;2.33;1.60;;;19.80;99.90;;;;;;5015869;28;20385;-55
2024/02/10 05:52:49;;;;;;;2.53;1.25;;;19.80;99.90;;;;;;5015828;28;20026;-56
2024/02/10 05:55:20;;;;;;;4.40;1.25;;;19.80;99.90;;;;;;5014673;28;20041;-60
2024/02/10 05:57:49;;;;;;;2.25;1.25;;;19.80;99.90;;;;;;5014712;28;20115;-55
2024/02/10 06:00:16;;;;;;;3.03;1.50;;;19.80;99.90;;;;;;5014606;28;20025;-55
2024/02/10 06:02:42;;;;;;;2.92;1.33;;;19.80;99.90;;;;;;4997153;28;20042;-55
2024/02/10 06:05:09;;;;;;;3.42;1.20;;;19.80;99.90;;;;;;4995094;28;20022;-55
2024/02/10 06:07:36;;;;;;;2.65;0.98;;;19.80;99.90;;;;;;5009910;28;20390;-55
2024/02/10 06:10:09;;;;;;;3.03;1.20;;;19.80;99.90;;;;;;5010771;28;20026;-55
2024/02/10 06:12:36;;;;;;;2.85;1.30;;;19.80;99.90;;;;;;4995011;28;20026;-55
2024/02/10 06:15:04;;;;;;;2.88;1.35;;;19.80;99.90;;;;;;4995844;28;20034;-54
2024/02/10 06:17:34;;;;;;;2.10;1.52;;;19.80;99.90;;;;;;4995676;28;20037;-55
2024/02/10 06:20:06;;;;;;;3.42;1.05;;;19.80;99.90;;;;;;4996143;28;20053;-55
2024/02/10 06:22:33;;;;;;;3.45;1.42;;;19.80;99.90;;;;;;4994702;28;20462;-55
2024/02/10 06:25:00;;;;;;;3.35;1.10;;;19.80;99.90;;;;;;4993989;28;20049;-55
2024/02/10 06:27:26;;;;;;;2.65;1.58;;;19.70;99.90;;;;;;4993560;28;20058;-55
2024/02/10 06:29:54;;;;;;;1.75;0.98;;;19.70;99.90;;;;;;4995236;28;20068;-56
2024/02/10 06:32:21;;;;;;;3.92;1.15;;;19.70;99.90;;;;;;4995909;28;20101;-56
2024/02/10 06:34:51;;;;;;;3.90;1.20;;;19.70;99.90;;;;;;4995786;28;20018;-56
2024/02/10 06:37:19;;;;;;;1.33;0.80;;;19.70;99.90;;;;;;4977729;28;20038;-56
2024/02/10 06:39:45;;;;;;;2.85;1.35;;;19.70;99.90;;;;;;4995196;28;20070;-56
2024/02/10 06:42:13;;;;;;;2.38;1.40;;;19.70;99.90;;;;;;4995242;28;20213;-55
2024/02/10 06:44:39;;;;;;;2.10;0.85;;;19.70;99.90;;;;;;4995407;28;20027;-56
2024/02/10 06:47:09;;;;;;;1.92;1.10;;;19.70;99.90;;;;;;5010451;28;20525;-56
2024/02/10 06:49:36;;;;;;;4.72;1.33;;;19.70;99.90;;;;;;4995276;28;20358;-56
2024/02/10 06:52:02;;;;;;;1.77;0.95;;;19.70;99.90;;;;;;4994111;28;20030;-56
2024/02/10 06:54:29;;;;;;;1.40;0.90;;;19.70;99.90;;;;;;4995199;28;20030;-55
2024/02/10 06:56:57;;;;;;;2.55;1.50;;;19.70;99.90;;;;;;4994808;28;20097;-55
2024/02/10 06:59:25;;;;;;;2.80;1.00;;;19.70;99.90;;;;;;4995120;28;20030;-56
2024/02/10 07:01:54;;;;;;;2.75;1.10;;;19.70;99.90;;;;;;4995135;28;20041;-56
2024/02/10 07:04:21;;;;;;;3.13;1.20;;;19.70;99.90;;;;;;4995195;28;20031;-56
2024/02/10 07:06:49;;;;;;;2.40;1.08;;;19.70;99.90;;;;;;4994780;28;20018;-56
2024/02/10 07:09:15;;;;;;;2.25;0.98;;;19.70;99.90;;;;;;4994805;28;20044;-56
2024/02/10 07:11:41;;;;;;;2.08;1.15;;;19.70;99.90;;;;;;4993426;28;20106;-56
2024/02/10 07:14:08;;;;;;;1.98;1.27;;;19.60;99.90;;;;;;4993384;28;20474;-55
2024/02/10 07:16:33;;;;;;;2.23;1.00;;;19.60;99.90;;;;;;4994724;28;20018;-56
2024/02/10 07:18:59;;;;;;;1.63;1.10;;;19.60;99.90;;;;;;4994721;28;20810;-56
2024/02/10 07:21:25;;;;;;;3.08;1.13;;;19.60;99.90;;;;;;4994552;28;20354;-56
2024/02/10 07:23:51;;;;;;;3.00;1.13;;;19.60;99.90;;;;;;4994780;28;20042;-56
2024/02/10 07:26:22;;;;;;;1.42;0.70;;;19.60;99.90;;;;;;4994559;28;20022;-56
2024/02/10 07:28:51;;;;;;;4.40;1.00;;;19.60;99.90;;;;;;4994474;28;20044;-56
2024/02/10 07:31:17;;;;;;;3.85;1.23;;;19.60;99.90;;;;;;4994454;28;20018;-56
2024/02/10 07:33:47;;;;;;;2.13;1.00;;;19.60;99.90;;;;;;4994321;28;20033;-56
2024/02/10 07:36:15;;;;;;;2.60;1.23;;;19.70;99.90;;;;;;4994312;28;20022;-56
2024/02/10 07:38:41;;;;;;;3.00;1.20;;;19.60;99.90;;;;;;4994284;28;20047;-56
2024/02/10 07:41:07;;;;;;;1.42;0.82;;;19.60;99.90;;;;;;4994331;28;20030;-56
2024/02/10 07:43:32;;;;;;;1.55;0.80;;;19.60;99.90;;;;;;4994130;28;20458;-57
2024/02/10 07:45:58;;;;;;;3.10;1.05;;;19.60;99.90;;;;;;4994186;28;20023;-57
2024/02/10 07:48:26;;;;;;;2.10;1.00;;;19.70;99.90;;;;;;4994300;28;20105;-57
2024/02/10 07:50:54;;;;;;;2.38;1.17;;;19.60;99.90;;;;;;4994238;28;20034;-56
2024/02/10 07:53:20;;;;;;;2.10;1.20;;;19.60;99.90;;;;;;4992819;28;20019;-56
2024/02/10 07:55:46;;;;;;;2.15;1.35;;;19.70;99.90;;;;;;4994115;28;20035;-56
2024/02/10 07:58:14;;;;;;;2.17;1.30;;;19.70;99.90;;;;;;4993967;28;20022;-55
2024/02/10 08:00:41;;;;;;;4.00;1.13;;;19.70;99.90;;;;;;4992714;28;20073;-56
2024/02/10 08:03:07;;;;;;;2.50;1.50;;;19.70;99.90;;;;;;4993884;28;20042;-55
2024/02/10 08:05:33;;;;;;;2.25;1.05;;;19.70;99.90;;;;;;4993783;28;20019;-55
2024/02/10 08:08:01;;;;;;;1.38;0.90;;;19.70;99.90;;;;;;4993075;28;20050;-55
2024/02/10 08:10:27;;;;;;;2.50;1.27;;;19.70;99.90;;;;;;4993657;28;20425;-56
2024/02/10 08:12:53;;;;;;;1.50;1.08;;;19.70;99.90;;;;;;4994216;28;20036;-57
2024/02/10 08:15:23;;;;;;;3.03;1.35;;;19.70;99.90;;;;;;4993656;28;20026;-57
2024/02/10 08:17:49;;;;;;;3.13;1.25;;;19.70;99.90;;;;;;4993554;28;20031;-57
2024/02/10 08:20:15;;;;;;;4.22;1.50;;;19.70;99.90;;;;;;4993331;28;20025;-58
2024/02/10 08:22:41;;;;;;;3.60;1.42;;;19.70;99.90;;;;;;4993504;28;20054;-57
2024/02/10 08:25:09;;;;;;;2.90;1.05;;;19.70;99.90;;;;;;4993360;28;20411;-57
2024/02/10 08:27:35;;;;;;;2.35;1.20;;;19.70;99.90;;;;;;4993141;28;20069;-56
2024/02/10 08:30:04;;;;;;;2.33;1.20;;;19.70;99.90;;;;;;4993206;28;20153;-56
2024/02/10 08:32:31;;;;;;;6.05;1.52;;;19.70;99.90;;;;;;4993359;28;20019;-56
2024/02/10 08:35:00;;;;;;;2.25;1.00;;;19.70;99.90;;;;;;4993290;28;20028;-56
2024/02/10 08:37:33;;;;;;;3.40;1.42;;;19.80;99.90;;;;;;4993027;28;20477;-56
2024/02/10 08:39:59;;;;;;;1.52;1.08;;;19.80;99.90;;;;;;4993069;28;20495;-56
2024/02/10 08:42:27;;;;;;;2.55;1.42;;;19.80;99.90;;;;;;5008354;28;20030;-56
2024/02/10 08:44:52;;;;;;;2.05;1.33;;;19.80;99.90;;;;;;4993280;28;20505;-57
2024/02/10 08:47:18;;;;;;;2.00;1.38;;;19.80;99.90;;;;;;4993030;28;20035;-57
2024/02/10 08:49:45;;;;;;;2.42;1.08;;;19.90;99.90;;;;;;4993088;28;20475;-57
2024/02/10 08:52:16;;;;;;;2.80;1.10;;;19.90;99.90;;;;;;4992988;28;20497;-57
2024/02/10 08:54:46;;;;;;;4.20;1.10;;;19.80;99.90;;;;;;4992964;28;20478;-56
2024/02/10 08:57:15;;;;;;;3.83;1.13;;;19.90;99.90;;;;;;4991676;28;20085;-57
2024/02/10 08:59:45;;;;;;;2.28;1.38;;;19.90;99.90;;;;;;4993073;28;20029;-57
2024/02/10 09:02:11;;;;;;;1.55;0.82;;;19.90;99.90;;;;;;4991408;28;20057;-56
2024/02/10 09:04:40;;;;;;;2.40;1.10;;;19.90;99.90;;;;;;4992886;28;20038;-56
2024/02/10 09:07:07;;;;;;;2.83;1.25;;;20.00;99.90;;;;;;4992942;28;20108;-57
2024/02/10 09:09:36;;;;;;;2.45;1.00;;;20.00;99.90;;;;;;4992851;28;20466;-56
2024/02/10 09:12:02;;;;;;;3.25;1.05;;;20.00;99.90;;;;;;4992907;28;20483;-56
2024/02/10 09:14:29;;;;;;;3.45;1.48;;;20.10;99.90;;;;;;4992902;28;20053;-57
2024/02/10 09:16:55;;;;;;;2.73;1.13;;;20.10;99.90;;;;;;4992892;28;20080;-57
2024/02/10 09:19:21;;;;;;;2.20;1.08;;;20.10;99.90;;;;;;4995228;28;20271;-58
2024/02/10 09:21:55;;;;;;;2.03;0.98;;;20.10;99.90;;;;;;4996677;28;20062;-56
2024/02/10 09:24:25;;;;;;;2.53;1.10;;;20.10;99.90;;;;;;4996706;28;20065;-54
2024/02/10 09:26:58;;;;;;;2.85;1.55;;;20.10;99.90;;;;;;4996726;28;20026;-55
2024/02/10 09:29:24;;;;;;;1.92;0.95;;;20.10;99.90;;;;;;4996712;28;20050;-56
2024/02/10 09:31:52;;;;;;;2.67;1.10;;;20.10;99.90;;;;;;4996647;28;20081;-55
2024/02/10 09:34:20;;;;;;;3.25;1.95;;;20.10;99.90;;;;;;4996467;28;20054;-55
2024/02/10 09:36:47;;;;;;;2.92;0.82;;;20.10;99.90;;;;;;4996381;28;20502;-55
2024/02/10 09:39:13;;;;;;;2.60;1.30;;;20.20;99.90;;;;;;4996384;28;20061;-56
2024/02/10 09:41:39;;;;;;;2.08;1.42;;;20.20;99.90;;;;;;4996329;28;20031;-55
2024/02/10 09:44:11;;;;;;;3.60;1.27;;;20.10;99.90;;;;;;4996218;28;20517;-56
2024/02/10 09:46:37;;;;;;;1.67;0.95;;;20.20;99.90;;;;;;4996131;28;20031;-55
2024/02/10 09:49:06;;;;;;;3.33;1.17;;;20.20;99.90;;;;;;4996258;28;20034;-56
2024/02/10 09:51:43;;;;;;;5.05;1.10;;;20.20;99.90;;;;;;4996451;28;20169;-55
2024/02/10 09:54:15;;;;;;;1.98;1.30;;;20.20;99.90;;;;;;4994788;28;20474;-56
2024/02/10 09:56:43;;;;;;;3.08;1.30;;;20.10;99.90;;;;;;4994829;28;20552;-56
2024/02/10 09:59:16;;;;;;;5.05;1.27;;;20.20;99.90;;;;;;4994884;28;20150;-55
2024/02/10 10:01:42;;;;;;;2.95;1.10;;;20.20;99.90;;;;;;4995165;28;20034;-55
2024/02/10 10:04:10;;;;;;;3.25;1.02;;;20.20;99.90;;;;;;4996100;28;20034;-55
2024/02/10 10:06:43;;;;;;;3.20;1.33;;;20.20;99.90;;;;;;4996038;28;20022;-56
2024/02/10 10:09:14;;;;;;;4.43;1.30;;;20.20;99.90;;;;;;4996070;28;20053;-56
2024/02/10 10:11:41;;;;;;;2.50;1.10;;;20.20;99.90;;;;;;4995962;28;20110;-56
2024/02/10 10:14:08;;;;;;;4.88;1.30;;;20.20;99.90;;;;;;4994638;28;20074;-56
2024/02/10 10:16:34;;;;;;;3.03;0.95;;;20.20;99.90;;;;;;4995808;28;20033;-55
2024/02/10 10:19:00;;;;;;;3.50;1.20;;;20.20;99.90;;;;;;4995768;28;20033;-55
2024/02/10 10:21:32;;;;;;;2.00;1.40;;;20.20;99.90;;;;;;4995651;28;20030;-55
2024/02/10 10:23:58;;;;;;;5.07;1.25;;;20.20;99.90;;;;;;4995809;28;20030;-55
2024/02/10 10:26:25;;;;;;;4.18;1.15;;;20.20;99.90;;;;;;4995569;28;20426;-56
2024/02/10 10:28:51;;;;;;;2.83;1.42;;;20.20;99.90;;;;;;4995485;28;20030;-55
2024/02/10 10:31:17;;;;;;;3.25;1.90;;;20.20;99.90;;;;;;5009836;28;20100;-55
2024/02/10 10:33:47;;;;;;;1.92;0.98;;;20.20;99.90;;;;;;4995378;28;20486;-55
2024/02/10 10:36:18;;;;;;;3.17;1.20;;;20.30;99.90;;;;;;4995339;28;20113;-55
2024/02/10 10:38:44;;;;;;;3.95;1.45;;;20.30;99.90;;;;;;4995130;28;20054;-55
2024/02/10 10:41:18;;;;;;;2.67;1.48;;;20.30;99.90;;;;;;4995355;28;20026;-55
2024/02/10 10:43:45;;;;;;;3.75;1.27;;;20.30;99.90;;;;;;4995244;28;20487;-55
2024/02/10 10:46:19;;;;;;;2.38;1.08;;;20.40;99.90;;;;;;5010200;28;20027;-56
2024/02/10 10:48:46;;;;;;;2.88;1.15;;;20.40;99.90;;;;;;4995204;28;20026;-56
2024/02/10 10:51:18;;;;;;;5.93;1.50;;;20.40;99.90;;;;;;4995199;28;20041;-56
2024/02/10 10:53:48;;;;;;;3.22;1.48;;;20.50;99.90;;;;;;4995177;28;20122;-56
2024/02/10 10:56:22;;;;;;;4.18;1.42;;;20.50;99.90;;;;;;4994888;28;20059;-56
2024/02/10 10:58:53;;;;;;;6.53;1.75;;;20.50;99.90;;;;;;4994969;28;20099;-56
2024/02/10 11:01:21;;;;;;;5.28;1.65;;;20.50;99.90;;;;;;5009758;28;20034;-55
2024/02/10 11:03:48;;;;;;;3.45;1.63;;;20.50;99.90;;;;;;4994732;28;20084;-55
2024/02/10 11:06:14;;;;;;;1.90;1.20;;;20.60;99.90;;;;;;4994743;28;20033;-55
2024/02/10 11:08:45;;;;;;;5.40;1.50;;;20.60;99.90;;;;;;5009582;28;20061;-56
2024/02/10 11:11:13;;;;;;;5.07;1.65;;;20.60;99.90;;;;;;4994802;28;20027;-56
2024/02/10 11:13:39;;;;;;;2.90;1.50;;;20.60;99.90;;;;;;4994762;28;20106;-56
2024/02/10 11:16:10;;;;;;;4.07;1.35;;;20.60;99.90;;;;;;4994884;28;20110;-56
2024/02/10 11:18:39;;;;;;;4.93;1.40;;;20.60;99.90;;;;;;4994708;28;20029;-56
2024/02/10 11:21:08;;;;;;;4.60;1.83;;;20.60;99.90;;;;;;4994723;28;20509;-55
2024/02/10 11:23:34;;;;;;;3.38;1.52;;;20.70;99.90;;;;;;4994442;28;20443;-56
2024/02/10 11:26:01;;;;;;;4.03;1.40;;;20.70;99.90;;;;;;4994468;28;20057;-56
2024/02/10 11:28:27;;;;;;;6.85;1.70;;;20.70;99.90;;;;;;4993159;28;20031;-55
2024/02/10 11:30:53;;;;;;;5.40;2.05;;;20.70;99.90;;;;;;4994506;28;20030;-56
2024/02/10 11:33:23;;;;;;;6.15;2.13;;;20.80;99.90;;;;;;4994346;28;20023;-55
2024/02/10 11:35:55;;;;;;;6.93;1.88;;;20.80;99.90;;;;;;4994345;28;20069;-55
2024/02/10 11:38:23;;;;;;;3.90;1.40;;;20.80;99.90;;;;;;4994015;28;20406;-56
2024/02/10 11:40:50;;;;;;;6.00;2.53;;;20.80;99.90;;;;;;4994128;28;20381;-56
2024/02/10 11:43:16;;;;;;;4.55;1.63;;;20.90;99.90;;;;;;5008016;28;20042;-55
2024/02/10 11:45:43;;;;;;;4.47;2.05;;;20.90;99.90;;;;;;4994223;28;20105;-55
2024/02/10 11:48:09;;;;;;;3.92;1.80;;;20.90;99.90;;;;;;4994220;28;20022;-56
2024/02/10 11:50:42;;;;;;;3.83;2.25;;;21.00;99.90;;;;;;4994326;28;20406;-56
2024/02/10 11:53:11;;;;;;;4.18;1.98;;;21.00;99.90;;;;;;4994052;28;20022;-56
2024/02/10 11:55:41;;;;;;;4.97;2.00;;;21.00;99.90;;;;;;4993988;28;20390;-55
2024/02/10 11:58:10;;;;;;;4.75;2.03;;;21.10;99.90;;;;;;4994191;28;20028;-55
2024/02/10 12:00:36;;;;;;;5.70;2.60;;;21.10;99.90;;;;;;5009170;28;20132;-56
2024/02/10 12:03:04;;;;;;;4.03;1.90;;;21.10;99.90;;;;;;4993981;28;20043;-56
2024/02/10 12:05:34;;;;;;;6.05;2.10;;;21.10;99.90;;;;;;4993933;28;20379;-56
2024/02/10 12:08:03;;;;;;;5.53;2.22;;;21.10;99.90;;;;;;4992603;28;20034;-56
2024/02/10 12:10:34;;;;;;;5.65;2.17;;;21.10;99.90;;;;;;4993870;28;20101;-56
2024/02/10 12:13:00;;;;;;;5.57;2.78;;;21.10;99.90;;;;;;4993812;28;20023;-56
2024/02/10 12:15:26;;;;;;;5.13;2.50;;;21.10;99.90;;;;;;4993679;28;20364;-54
2024/02/10 12:17:55;;;;;;;4.78;1.85;;;21.10;99.90;;;;;;4993418;28;20083;-56
2024/02/10 12:20:23;;;;;;;11.00;3.10;;;21.10;99.90;;;;;;4993542;28;20026;-56
2024/02/10 12:22:49;;;;;;;;;;;21.10;99.90;;;;;;4993804;28;20065;-56
2024/02/10 12:25:14;;;;;;;7.72;3.05;;;21.10;99.90;;;;;;4993492;28;20282;-57
2024/02/10 12:27:40;;;;;;;6.78;3.03;;;21.10;99.90;;;;;;4993325;28;20033;-57
2024/02/10 12:30:06;;;;;;;6.72;3.00;;;21.10;99.90;;;;;;5008648;28;20049;-57
2024/02/10 12:32:34;;;;;;;4.30;2.42;;;21.10;99.90;;;;;;4993282;28;20035;-56
2024/02/10 12:35:06;;;;;;;7.10;3.38;;;21.00;99.90;;;;;;4993197;28;20022;-55
2024/02/10 12:37:33;;;;;;;5.78;2.63;;;21.00;99.90;;;;;;4992974;28;20129;-55
2024/02/10 12:39:59;;;;;;;6.50;2.53;;;21.00;99.90;;;;;;4993252;28;20473;-54
2024/02/10 12:42:24;;;;;;;7.97;3.15;;;21.00;99.90;;;;;;4993040;28;20098;-54
2024/02/10 12:44:50;;;;;;;11.38;2.75;;;21.00;99.90;;;;;;4993174;28;20022;-56
2024/02/10 12:47:16;;;;;;;5.88;2.63;;;21.00;99.90;;;;;;4993205;28;20045;-56
2024/02/10 12:49:44;;;;;;;5.85;2.55;;;21.00;99.90;;;;;;4991534;28;20378;-55
2024/02/10 12:52:12;;;;;;;9.45;2.80;;;21.00;99.90;;;;;;4993043;28;20384;-56
2024/02/10 12:54:38;;;;;;;;;;;21.00;99.90;;;;;;5008396;28;20030;-56
2024/02/10 12:57:06;;;;;;;7.45;2.72;;;21.10;99.90;;;;;;4991616;28;19906;-56